Timeline UpdatesTrip UpdatesNews PostsPvt PostsTravel TipsAdmin PostsConv PostsFollowed PostsChat RequestsBlog PostsPNR Posts

Disclaimer
Search
 
 
Fri Apr 25, 2014 00:19:35 ISTHomeTrainsΣChainsAtlasPNRForumGalleryNewsFAQTripsMembersLoginFeedback
No Recent News for this Train
Other Trains in the News **new
Latest...
.
Fri Feb 21, 2014 (02:20PM)
⇐ Return Journey: Train# 13008

13007/Udyan Abha Toofan Express

Feb 21 2014 (2:33PM)
Change Departure Station:
Change Arrival Station:
Post a Train Travel TipPost a Train Travel Tip **new
Post a Comment/Question/Picture/VideoPost a Comment/Question/Picture/Video
Inaugural Run
Wed Jan 01, 1930
Pantry/Catering
✕ NO Pantry Car
✕ NO Catering
Loco/Rake Reversals
AGC/Agra Cantt. (6);
RSA - Rake Sharing
Rake/Coach Composition
LOCO-SLR-GEN-GEN-B1-S5-S4-S3-S2-S1-GEN-GEN-SLR-HCPV-HCPV.
Loco
HWH-NDLS: HWH WAP-4 NDLS-SGNR: TKD WDM-3A
News    PNR    Forum    Time-Table    Availability    Fare Chart    Map    Arr/Dep History    Trips    Gallery    ΣChains    X/O    Timeline    
Travel Time: 11h 56m    -2 halts    Distance: 560 km    Avg Speed: 46 km/hr
Type: Mail/Express
Zone: ER/Eastern
Departs @ 09:35 (Avg 29m late)
Platform# 11
SMTWTFS
Kolkata Howrah Junction/HWH 
Arrives @ 21:31 (Avg 1h 32m late)
Platform# ???
SMTWTFS
Neora/NEO 

-2 halts. 135 intermediate Stations between Kolkata Howrah Junction and Neora

Show ALL intermediate Stations  Show Old Time-Table

#CodeStation NameX/OArrivesAvgDepartsAvgHaltPFDay#KmSpeedElevZoneAddress
1HWHKolkata Howrah Junction (23)  -09:35+291110.04210mERHowrah 711101, West Bengal
2BDCBandel Junction (7)X  10:32+3210:37+335m--139.67014mERdist - HOOGHLY, West Bengal
3BWNBarddhaman Junction (8)X  11:35+3811:40+385m--1106.88234mERDist - Barddhaman, West Bengal
4PANPanagarh (4)  12:15+4412:16+451m--1154.85570mERKaksa, West Bengal
5DGRDurgapur (5)X  12:33+4212:35+422m31170.47971mERDurgapur, West Bengal
6UDLAndal Junction (6)X  12:48+4612:50+462m--1187.46286mERAndal, West Bengal
7RNGRaniGanj (4)X  12:57+4912:58+501m--1194.73492mERRaniganj, West Bengal
8ASNAsansol Junction (7)X  13:30+3913:35+435m41212.840113mERDist - bardhaman, West Bengal
9STNSitarampur Junction (5)  13:48+4513:50+462m--1221.658139mERG T Rd Before Asansol, West Bengal
10CRJChittaranjan (3)X  14:07+4614:08+471m31237.966182mERMihijam, Jharkhand
11JMTJamtara (2)X  14:21+4614:22+481m11252.263201mERJamtara, Jharkhand
12VDSVidyasagar (2)  14:39+5114:40+521m--1270.166250mERJamtara, Jharkhand
13MDPMadhupur Junction (4)  15:02+5315:12+5110m21294.367254mER06432-224478, Jharkhand
14JSMEJasidih Junction (5)  15:38+5415:43+545m--1323.480271mERJasidih, Jharkhand
15STLSimultala (2)X  16:02+5116:03+521m--1348.830247mERSimultala, Bihar
16JAJJhajha (4)  16:40+4516:45+475m31367.562143mECRJhajha, Bihar
17GHRGidhaur (2)X  16:56+5116:57+521m--1378.973106mECRState Highway 18, Bihar
18JMUJamui (3)X  17:09+5617:10+581m--1393.59481mECRState Highway 72, Bihar
19MNPMananpur (2)  17:23+5917:24+1:021m--1413.91757mECRState Highway 18, Bihar
20BSQPBansipur  17:33+1:0117:34+1:041m--1416.42653mECRKiul, Bihar
21KIULKiul Junction (5)X  17:44+1:0217:48+1:014m31420.81253mECRDist. Lakhisarai, Bihar
22LKRLuckeesarai Junction (2)X  17:55+1:0017:56+1:011m--1422.13852mECRLakhisarai, Bihar
23DMRXDumri Halt (1)  18:13+1:0018:14+1:001m11433.05149mECRNational Highway 80, Bihar
24BRYABarhiya  18:19+5918:20+1:001m--1437.25647mECRBarahiya, Bihar
25HTZHathidah Junction (2)X  18:30+1:0118:31+1:021m21446.65650mECRMusahari, Bihar
26MKAMokama Junction (3)X  18:40+1:0318:44+1:054m--1455.07248mECRPatna, Bihar
27MORMorX  18:50+1:0618:51+1:061m--1462.25546mECRMor, Bihar
28PHKPunarakh  19:00+1:0519:01+1:071m--1470.56251mECRPunarakh, Bihar
29BARHBarh (3)X  19:11+1:0619:12+1:091m--1480.96949mECRBarh, Bihar
30ATLAthmal Gola (2)XO  19:20+1:0819:21+1:081m--1490.12252mECRPatna, Bihar
31BKPBakhtiyarpur Junction (5)X  19:46+5519:48+562m--1499.17951mECRPatna, Bihar
32KOOKhusropur (2)  19:59+5820:00+1:061m--1513.75652mECRPatna, Bihar
33FUTFatwa (6)X  20:09+1:0820:10+1:111m--1522.17353mECRPatna, Bihar
34PNCPatna Saheb (3)X  20:20+1:1520:21+1:181m--1534.42659mECRPatna, Bihar
35GZHGulzarbagh (3)X  20:28+1:1720:29+1:221m--1537.42055mECRPatna, Bihar
36PNBEPatna Junction (10)X  20:50+1:1721:00+1:2310m--1544.23857mECRPatna 800001, Bihar
37DNRDanapur (5)XO  21:15+1:3021:25+1:3010m--1553.65658mECRKhagaul, Bihar
38SDESadisopur (2)  21:39+1:3921:40+1:401m--1566.85164mECRSadisopur, Bihar
39BTABihta (2)X  21:45+1:3921:46+1:421m--1571.03962mECRBihta, Bihar
40KUAKulharia (2)  22:05+1:3822:06+1:401m--1583.35461mECRChandi Sahar Rd, Bihar
41ARAAra Junction (3)  22:17+1:4022:22+1:405m--1593.29263mECRarrah( 06182-233411), Bihar
42BEABihiya  22:36+1:4422:37+1:461m--1614.65167mECRBehea, Bihar
43BYNBanahi  22:44+1:4622:45+1:461m--1620.55967mECRBanahi, Bihar
44RPRRaghunathpur  22:54+1:4422:55+1:491m--1629.47469mECRRaghunathpur, Bihar
45DUREDumraon (3)  23:08+1:5023:09+1:531m--1645.36170mECRDumraon, Bihar
46BXRBuxar (3)X  23:25+1:5323:30+1:565m--1661.78067mECRBuxar, Bihar
47DLNDildarnagar Junction (2)  23:57+1:5723:59+1:582m--1697.95872mECRDildarnagar, Uttar Pradesh
48ZNAZamaniaXO  00:13+1:5300:14+1:551m--2711.42077mECRGhazipur, Uttar Pradesh
49MGSMughal Sarai Junction (8)XO  02:25+5102:40+5315m--2755.65583mECRMughalsarai 232101, Uttar Pradesh
50CARChunar Junction (5)X  03:15+1:1703:16+1:211m22787.56185mNCRChunar Junction, Uttar Pradesh
51MZPMirzapur (3)O  03:47+1:3903:48+1:421m--2818.84988mNCRMirzapur, Uttar Pradesh
52BDLVindhyachal (3)  03:57+1:4903:58+1:521m--2826.17488mNCRMirzapur, Uttar Pradesh
53ALDAllahabad Junction (10)X  05:05+3:0805:15+3:1010m22908.377100mNCRAllahabad 211003, Uttar Pradesh
54BREBharwariX  05:44+3:3005:45+3:331m--2945.475108mNCRBharwari, Uttar Pradesh
55SROSirathu (2)X  06:01+3:3606:02+3:391m12965.571109mNCRSirathu, Uttar Pradesh
56KGAKhaga (3)  06:23+3:4606:24+3:491m--2990.352114mNCRFatehpur, Uttar Pradesh
57FTPFatehpur (3)  07:04+3:4307:05+3:521m--21025.058120mNCRFatehpur, Uttar Pradesh
58CNBKanpur Central (10)  08:25+4:0808:40+4:1115m221102.636128mNCRKanpur, Uttar Pradesh
59PNKPanki (3)  08:59+4:1809:00+4:191m--21114.286129mNCRKANPUR-208 020, Uttar Pradesh
60RURARura (4)  09:23+4:2309:24+4:251m--21147.071137mNCRJhinjhak, Uttar Pradesh
61JJKJhinjhak (3)  09:40+4:2709:41+4:291m321166.074140mNCRAuraiya, Uttar Pradesh
62PHDPhaphund (4)X  09:57+4:3909:58+4:411m--21185.867146mNCRdist. Auraiya, Uttar Pradesh
63ULDAchalda (3)X  10:13+4:4110:14+4:431m--21202.673147mNCRDist. Auraiya(05688-1072), Uttar Pradesh
64BNTBharthana (3)X  10:30+4:4310:31+4:461m--21222.152147mNCRBharthana, Uttar Pradesh
65ETWEtawah (5)  10:54+4:4410:55+4:501m221242.062154mNCRDistt. Etawah, Uttar Pradesh
66SKBShikohabad Junction (4)X  11:49+5:0511:50+5:031m321297.438166mNCRDistrict Firozabad, Uttar Pradesh
67FZDFirozabad (4)  12:21+5:0112:22+5:071m321317.323164mNCRFirozabad, Uttar Pradesh
68TDLTundla Junction (4)  13:05+4:5713:15+4:5610m221333.821167mNCRDistt.Firozabad, Uttar Pradesh
69AFAgra Fort (3)  14:20+4:4914:25+5:015m221356.814170mNCRRakabganj, Uttar Pradesh
70IDHIdgah Agra Junction (3)  14:34+5:0314:35+5:111m--21358.95168mNCRAgra, Uttar Pradesh
71AGCAgra Cantt. (6)XO15:00+4:5915:20+5:1920m321361.113174mNCRAgra, Uttar Pradesh
72RKMRaja Ki Mandi (4)  15:38+5:1515:39+5:161m121365.165170mNCRAgra, Uttar Pradesh
73MTJMathura Junction (10)  16:25+5:1816:33+5:168m221414.872179mNCRMathura, Uttar Pradesh
74CHJChata (4)X  16:59+5:1717:00+5:181m--21445.951185mNCRChhata, Uttar Pradesh
75KSVKosi Kalan (3)X  17:12+5:1817:13+5:191m121456.255189mNCRKosi Kalan, Uttar Pradesh
76PWLPalwal (8)X  17:59+5:0818:00+5:121m--21498.756200mNRPalwal, Haryana
77ASTAsaoti (5)  18:12+5:1218:13+5:131m321510.059203mNRAsaoti, Haryana
78BVHBallabgarh (5)  18:23+5:1618:24+5:161m--21519.944203mNRFaridabad, Haryana
79FDBFaridabad (4)  18:35+5:1618:36+5:171m221527.948206mNRFaridabad, Haryana
80TKDTuglakabad (4)X  18:50+5:1718:51+5:131m--21539.033213mNRNear Tughlakabad Metro Station, Delhi NCT
81OKAOkhla (4)X  19:02+5:1719:03+5:121m--21545.118221mNRIshwar Nagar Mathura Road, Delhi NCT
82NZMDelhi Hazrat Nizamuddin (7)X  19:15+5:1419:17+5:142m321548.748209mNRNizamuddin East/Sarai KaleKhan Bus Terminal, Delhi NCT
83TKJTilak Bridge (4)X  19:23+5:1219:24+5:121m--21553.59214mNRNew Delhi, Delhi NCT
84NDLSNew Delhi (16)X  19:40+5:1120:10+5:1130m221555.914215mNRAjmeri Gate/Paharganj, Delhi NCT
85DKZDelhi KishanGanj (2)  20:27+5:1220:28+5:131m--21559.832220mNRSarai Rohilla, Delhi NCT
86SSBShakur BastiX  20:41+5:1420:42+5:151m--21566.850216mNRPitampura, Delhi NCT
87BGZBahadurgarh  21:06+5:1721:07+5:171m--21586.772220mNRBahadurgarh, Haryana
88SPZSamplaX  21:22+5:1921:23+5:201m--21604.750222mNRSampla, Haryana
89ROKRohtak Junction (3)  21:50+5:1421:55+5:125m--21627.067220mNRRohtak, Haryana
90JNAJulana  22:23+5:1022:24+5:111m--21658.450226mNRJulana, Haryana
91JINDJind Junction (3)  22:55+5:0423:00+5:035m--21684.170222mNR126102., Haryana
92UCAUchana  23:16+5:0523:17+5:061m--21702.865225mNRDistrict Jind, Haryana
93NRWNarwana Junction (4)  23:31+5:0723:32+5:081m--21718.073235mNRWay to Narwana, Haryana
94TUNTohana (2)  23:53+5:0823:54+5:091m--21743.435232mNRTohana, Haryana
95JHLJakhal Junction  00:15+5:0300:25+4:5910m--31755.743225mNRJakhal, Haryana
96BLZBudhladaX  01:06+4:5001:07+4:451m--31785.348223mNRBudhlada, Punjab
97MSZMansa  01:27+4:4701:28+4:481m--31801.449222mNRMansa, Punjab
98MAURMaur  01:51+4:4801:52+4:481m--31820.126220mNRMaur Mandi, Punjab
99BTIBathinda Junction (6)XO  03:15+4:1704:05+4:0550m231855.673208mNRBathinda, Punjab
100GDBGiddarbaha  04:28+4:1204:29+4:201m--31883.457200mNRGiddarbaha, Punjab
101MOTMalout (1)  04:46+4:2104:47+4:241m131899.644194mNRMalaut, Punjab
102ABSAbohar  05:27+4:1405:28+4:171m--31929.135186mNRAbohar, Punjab
103SGNRShri Ganganagar  07:00+3:59-331982.2-178mNWRSri Ganganagar, Rajasthan
Scroll to Top
Scroll to Bottom